Welling, OK

11:32 PM CDT on July 27, 2015 (GMT -0500)
Greystone Estates | | Change Station
CLOSE
Current Station
Personal Weather Station
Location: Tahlequah, OK
Elevation: 869 ft
Nearby Weather Stations
Active Advisory: Heat Advisory

Elev 869 ft 35.89 °N, 94.96 °W | Updated 12 seconds ago

Clear
Clear
80.8 °F
Feels Like 88 °F
N
0.0
Wind Variable Wind from WSW
Gusts 0.0 mph

Today
High -- | Low -- °F
--% Chance of Precip.
Yesterday
High -- | Low -- °F
Precip. -- in
6:22 AM 8:28 PM
Waxing Gibbous, 87% visible
Pressure 29.95 in
Visibility 7.0 miles
Clouds Clear
Heat Index 88 °F
Dew Point 78 °F
Humidity 92%
Rainfall 0.00 in
Snow Depth Not available.
UV 0 out of 12
Pollen 4.40 out of 12
Air Quality Not available.
Flu Activity Not available.
METAR KTQH 280415Z AUTO 00000KT 7SM CLR 26/25 A2995 RMK AO2

More Conditions Fewer Conditions

Pressure 29.95 in
Visibility 7.0 miles
Clouds Clear
Heat Index 88 °F
Dew Point 78 °F
Humidity 92%
Rainfall 0.00 in
Snow Depth Not available.
UV 0 out of 12
Pollen 4.40 out of 12
Air Quality Not available.
Flu Activity Not available.
METAR KTQH 280415Z AUTO 00000KT 7SM CLR 26/25 A2995 RMK AO2

More Conditions Fewer Conditions

10-Day Weather Forecast

×

Almanac

Astronomy

Jul. 27, 2015 Rise Set
Actual Time
Civil Twilight
Nautical Twilight
Astronomical Twilight
Moon
Length of Visible Light
Length of Day
Tomorrow will be .
, % of the Moon is Illuminated

Today's Extremes

State Highs State Lows

Community

WunderPhotos

Upload Photos

1,841,794 photos uploaded!

WunderBlogs® & News

Nearby

Air Quality

  Air Quality AQ Index Pollutant
Not available.

Snow Depth

Station Depth Elevation

Earthquake Activity

City Distance Mag. Time & Date
Minimum magnitude displayed is 2.5.

Coastal Water Temperatures

Place Temperature

Stations

Nearby Weather Stations

Station Location Temp. Windchill Dew Point Humidity Wind Precip. Elev Updated Type
                   
Heat Advisory
Statement as of 8:32 PM CDT on July 27, 2015

... Heat advisory in effect from noon to 8 PM CDT Tuesday...

* dangerous heat and humidity will continue again Tuesday with
heat index values in the 105 to 110 degree range across much
of eastern Oklahoma and west central Arkansas.

* Impacts... the combination of heat and humidity will create a
situation in which heat related illnesses are possible.

Precautionary/preparedness actions...

* drink plenty of fluids... stay in an air-conditioned room...
stay out of the sun... and check up on relatives and neighbors.
Never leave anyone in a closed... parked vehicle... temperatures
inside can reach over 150 degrees quickly... resulting in
death.